sensor_id;sensor_type;location;lat;lon;timestamp;temperature;humidity
5222;DHT22;2630;52.036;8.514;2023-03-24T00:00:43;11.80;99.90
5222;DHT22;2630;52.036;8.514;2023-03-24T00:03:08;11.70;99.90
5222;DHT22;2630;52.036;8.514;2023-03-24T00:05:35;11.70;99.90
5222;DHT22;2630;52.036;8.514;2023-03-24T00:08:00;11.70;99.90
5222;DHT22;2630;52.036;8.514;2023-03-24T00:12:55;11.60;99.90
5222;DHT22;2630;52.036;8.514;2023-03-24T00:15:23;11.60;99.90
5222;DHT22;2630;52.036;8.514;2023-03-24T00:17:50;11.60;99.90
5222;DHT22;2630;52.036;8.514;2023-03-24T00:20:17;11.50;99.90
5222;DHT22;2630;52.036;8.514;2023-03-24T00:22:46;11.60;99.90
5222;DHT22;2630;52.036;8.514;2023-03-24T00:25:20;11.60;99.90
5222;DHT22;2630;52.036;8.514;2023-03-24T00:27:52;11.60;99.90
5222;DHT22;2630;52.036;8.514;2023-03-24T00:30:18;11.50;99.90
5222;DHT22;2630;52.036;8.514;2023-03-24T00:32:44;11.50;99.90
5222;DHT22;2630;52.036;8.514;2023-03-24T00:35:12;11.40;99.90
5222;DHT22;2630;52.036;8.514;2023-03-24T00:37:38;11.40;99.90
5222;DHT22;2630;52.036;8.514;2023-03-24T00:40:06;11.40;99.90
5222;DHT22;2630;52.036;8.514;2023-03-24T00:42:34;11.40;99.90
5222;DHT22;2630;52.036;8.514;2023-03-24T00:45:05;11.40;99.90
5222;DHT22;2630;52.036;8.514;2023-03-24T00:50:04;11.40;99.90
5222;DHT22;2630;52.036;8.514;2023-03-24T00:52:31;11.40;99.90
5222;DHT22;2630;52.036;8.514;2023-03-24T00:54:59;11.40;99.90
5222;DHT22;2630;52.036;8.514;2023-03-24T00:57:26;11.40;99.90
5222;DHT22;2630;52.036;8.514;2023-03-24T00:59:55;11.40;99.90
5222;DHT22;2630;52.036;8.514;2023-03-24T01:02:23;11.40;99.90
5222;DHT22;2630;52.036;8.514;2023-03-24T01:04:54;11.40;99.90
5222;DHT22;2630;52.036;8.514;2023-03-24T01:07:21;11.40;99.90
5222;DHT22;2630;52.036;8.514;2023-03-24T01:09:48;11.40;99.90
5222;DHT22;2630;52.036;8.514;2023-03-24T01:12:34;11.40;99.90
5222;DHT22;2630;52.036;8.514;2023-03-24T01:15:04;11.40;99.90
5222;DHT22;2630;52.036;8.514;2023-03-24T01:17:30;11.40;99.90
5222;DHT22;2630;52.036;8.514;2023-03-24T01:19:56;11.40;99.90
5222;DHT22;2630;52.036;8.514;2023-03-24T01:22:27;11.50;99.90
5222;DHT22;2630;52.036;8.514;2023-03-24T01:27:19;11.50;99.90
5222;DHT22;2630;52.036;8.514;2023-03-24T01:29:44;11.40;99.90
5222;DHT22;2630;52.036;8.514;2023-03-24T01:32:10;11.40;99.90
5222;DHT22;2630;52.036;8.514;2023-03-24T01:34:36;11.40;99.90
5222;DHT22;2630;52.036;8.514;2023-03-24T01:37:02;11.40;99.90
5222;DHT22;2630;52.036;8.514;2023-03-24T01:39:28;11.50;99.90
5222;DHT22;2630;52.036;8.514;2023-03-24T01:41:54;11.50;99.90
5222;DHT22;2630;52.036;8.514;2023-03-24T01:46:52;11.60;99.90
5222;DHT22;2630;52.036;8.514;2023-03-24T01:49:18;11.60;99.90
5222;DHT22;2630;52.036;8.514;2023-03-24T01:51:46;11.60;99.90
5222;DHT22;2630;52.036;8.514;2023-03-24T01:57:08;11.80;99.90
5222;DHT22;2630;52.036;8.514;2023-03-24T01:59:38;11.80;99.90
5222;DHT22;2630;52.036;8.514;2023-03-24T02:02:05;11.80;99.90
5222;DHT22;2630;52.036;8.514;2023-03-24T02:04:33;11.80;99.90
5222;DHT22;2630;52.036;8.514;2023-03-24T02:07:09;11.80;99.90
5222;DHT22;2630;52.036;8.514;2023-03-24T02:09:36;11.70;99.90
5222;DHT22;2630;52.036;8.514;2023-03-24T02:12:02;11.70;99.90
5222;DHT22;2630;52.036;8.514;2023-03-24T02:14:28;11.80;99.90
5222;DHT22;2630;52.036;8.514;2023-03-24T02:17:01;11.80;99.90
5222;DHT22;2630;52.036;8.514;2023-03-24T02:33:40;11.90;99.90
5222;DHT22;2630;52.036;8.514;2023-03-24T02:37:03;11.90;99.90
5222;DHT22;2630;52.036;8.514;2023-03-24T02:45:05;11.80;99.90
5222;DHT22;2630;52.036;8.514;2023-03-24T02:50:01;11.80;99.90
5222;DHT22;2630;52.036;8.514;2023-03-24T02:55:33;11.90;99.90
5222;DHT22;2630;52.036;8.514;2023-03-24T02:58:40;11.90;99.90
5222;DHT22;2630;52.036;8.514;2023-03-24T03:01:52;11.90;99.90
5222;DHT22;2630;52.036;8.514;2023-03-24T03:04:12;12.00;99.90
5222;DHT22;2630;52.036;8.514;2023-03-24T03:06:43;11.90;99.90
5222;DHT22;2630;52.036;8.514;2023-03-24T03:09:15;11.90;99.90
5222;DHT22;2630;52.036;8.514;2023-03-24T03:11:45;12.00;99.90
5222;DHT22;2630;52.036;8.514;2023-03-24T03:14:16;12.00;99.90
5222;DHT22;2630;52.036;8.514;2023-03-24T03:16:49;12.00;99.90
5222;DHT22;2630;52.036;8.514;2023-03-24T03:19:39;12.00;99.90
5222;DHT22;2630;52.036;8.514;2023-03-24T03:22:16;12.00;99.90
5222;DHT22;2630;52.036;8.514;2023-03-24T03:24:47;12.10;99.90
5222;DHT22;2630;52.036;8.514;2023-03-24T03:27:21;12.00;99.90
5222;DHT22;2630;52.036;8.514;2023-03-24T03:32:23;11.90;99.90
5222;DHT22;2630;52.036;8.514;2023-03-24T03:35:15;11.70;99.90
5222;DHT22;2630;52.036;8.514;2023-03-24T03:38:12;11.60;99.90
5222;DHT22;2630;52.036;8.514;2023-03-24T03:43:11;11.60;99.90
5222;DHT22;2630;52.036;8.514;2023-03-24T03:45:36;11.60;99.90
5222;DHT22;2630;52.036;8.514;2023-03-24T03:48:02;11.60;99.90
5222;DHT22;2630;52.036;8.514;2023-03-24T03:50:28;11.60;99.90
5222;DHT22;2630;52.036;8.514;2023-03-24T03:52:53;11.50;99.90
5222;DHT22;2630;52.036;8.514;2023-03-24T03:57:46;11.60;99.90
5222;DHT22;2630;52.036;8.514;2023-03-24T04:00:17;11.60;99.90
5222;DHT22;2630;52.036;8.514;2023-03-24T04:05:36;11.60;99.90
5222;DHT22;2630;52.036;8.514;2023-03-24T04:08:12;11.60;99.90
5222;DHT22;2630;52.036;8.514;2023-03-24T04:13:21;11.70;99.90
5222;DHT22;2630;52.036;8.514;2023-03-24T04:15:58;11.70;99.90
5222;DHT22;2630;52.036;8.514;2023-03-24T04:21:30;11.80;99.90
5222;DHT22;2630;52.036;8.514;2023-03-24T04:26:56;11.90;99.90
5222;DHT22;2630;52.036;8.514;2023-03-24T04:32:38;12.00;99.90
5222;DHT22;2630;52.036;8.514;2023-03-24T04:36:13;12.10;99.90
5222;DHT22;2630;52.036;8.514;2023-03-24T04:38:12;12.20;99.90
5222;DHT22;2630;52.036;8.514;2023-03-24T04:40:42;12.20;99.90
5222;DHT22;2630;52.036;8.514;2023-03-24T04:43:12;12.20;99.90
5222;DHT22;2630;52.036;8.514;2023-03-24T04:45:41;12.30;99.90
5222;DHT22;2630;52.036;8.514;2023-03-24T04:48:09;12.20;99.90
5222;DHT22;2630;52.036;8.514;2023-03-24T04:53:03;12.40;99.90
5222;DHT22;2630;52.036;8.514;2023-03-24T04:58:17;12.50;99.90
5222;DHT22;2630;52.036;8.514;2023-03-24T05:00:44;12.50;99.90
5222;DHT22;2630;52.036;8.514;2023-03-24T05:03:10;12.60;99.90
5222;DHT22;2630;52.036;8.514;2023-03-24T05:05:43;12.60;99.90
5222;DHT22;2630;52.036;8.514;2023-03-24T05:08:09;12.70;99.90
5222;DHT22;2630;52.036;8.514;2023-03-24T05:13:05;12.70;99.90
5222;DHT22;2630;52.036;8.514;2023-03-24T05:15:31;12.80;99.90
5222;DHT22;2630;52.036;8.514;2023-03-24T05:17:57;12.80;99.90
5222;DHT22;2630;52.036;8.514;2023-03-24T05:20:23;12.90;99.90
5222;DHT22;2630;52.036;8.514;2023-03-24T05:22:49;12.90;99.90
5222;DHT22;2630;52.036;8.514;2023-03-24T05:25:15;12.90;99.90
5222;DHT22;2630;52.036;8.514;2023-03-24T05:27:41;12.90;99.90
5222;DHT22;2630;52.036;8.514;2023-03-24T05:30:07;12.90;99.90
5222;DHT22;2630;52.036;8.514;2023-03-24T05:32:34;12.90;99.90
5222;DHT22;2630;52.036;8.514;2023-03-24T05:34:59;12.90;99.90
5222;DHT22;2630;52.036;8.514;2023-03-24T05:37:25;12.90;99.90
5222;DHT22;2630;52.036;8.514;2023-03-24T05:39:52;12.90;99.90
5222;DHT22;2630;52.036;8.514;2023-03-24T05:42:17;12.90;99.90
5222;DHT22;2630;52.036;8.514;2023-03-24T05:44:43;12.90;99.90
5222;DHT22;2630;52.036;8.514;2023-03-24T05:47:10;12.80;99.90
5222;DHT22;2630;52.036;8.514;2023-03-24T05:49:37;12.90;99.90
5222;DHT22;2630;52.036;8.514;2023-03-24T05:52:03;12.90;99.90
5222;DHT22;2630;52.036;8.514;2023-03-24T05:54:30;12.90;99.90
5222;DHT22;2630;52.036;8.514;2023-03-24T05:56:58;12.80;99.90
5222;DHT22;2630;52.036;8.514;2023-03-24T05:59:24;12.70;99.90
5222;DHT22;2630;52.036;8.514;2023-03-24T06:01:50;12.70;99.90
5222;DHT22;2630;52.036;8.514;2023-03-24T06:06:45;12.70;99.90
5222;DHT22;2630;52.036;8.514;2023-03-24T06:09:11;12.60;99.90
5222;DHT22;2630;52.036;8.514;2023-03-24T06:11:39;12.60;99.90
5222;DHT22;2630;52.036;8.514;2023-03-24T06:14:04;12.60;99.90
5222;DHT22;2630;52.036;8.514;2023-03-24T06:16:31;12.60;99.90
5222;DHT22;2630;52.036;8.514;2023-03-24T06:18:58;12.60;99.90
5222;DHT22;2630;52.036;8.514;2023-03-24T06:21:25;12.70;99.90
5222;DHT22;2630;52.036;8.514;2023-03-24T06:23:55;12.70;99.90
5222;DHT22;2630;52.036;8.514;2023-03-24T06:26:23;12.70;99.90
5222;DHT22;2630;52.036;8.514;2023-03-24T06:28:48;12.70;99.90
5222;DHT22;2630;52.036;8.514;2023-03-24T06:31:19;12.60;99.90
5222;DHT22;2630;52.036;8.514;2023-03-24T06:33:47;12.50;99.90
5222;DHT22;2630;52.036;8.514;2023-03-24T06:36:13;12.40;99.90
5222;DHT22;2630;52.036;8.514;2023-03-24T06:38:39;12.30;99.90
5222;DHT22;2630;52.036;8.514;2023-03-24T06:41:06;12.20;99.90
5222;DHT22;2630;52.036;8.514;2023-03-24T06:43:32;12.20;99.90
5222;DHT22;2630;52.036;8.514;2023-03-24T06:45:58;12.10;99.90
5222;DHT22;2630;52.036;8.514;2023-03-24T06:48:24;12.00;99.90
5222;DHT22;2630;52.036;8.514;2023-03-24T06:50:54;12.00;99.90
5222;DHT22;2630;52.036;8.514;2023-03-24T06:53:20;12.00;99.90
5222;DHT22;2630;52.036;8.514;2023-03-24T06:55:47;12.10;99.90
5222;DHT22;2630;52.036;8.514;2023-03-24T06:58:13;12.30;99.90
5222;DHT22;2630;52.036;8.514;2023-03-24T07:10:24;12.10;99.90
5222;DHT22;2630;52.036;8.514;2023-03-24T07:20:09;11.90;99.90
5222;DHT22;2630;52.036;8.514;2023-03-24T07:22:34;11.80;99.90
5222;DHT22;2630;52.036;8.514;2023-03-24T07:27:30;12.10;99.90
5222;DHT22;2630;52.036;8.514;2023-03-24T07:32:23;12.50;99.90
5222;DHT22;2630;52.036;8.514;2023-03-24T07:34:49;12.40;99.90
5222;DHT22;2630;52.036;8.514;2023-03-24T07:37:14;12.50;99.90
5222;DHT22;2630;52.036;8.514;2023-03-24T07:39:40;12.70;99.90
5222;DHT22;2630;52.036;8.514;2023-03-24T07:42:05;13.00;99.90
5222;DHT22;2630;52.036;8.514;2023-03-24T07:44:32;13.40;99.90
5222;DHT22;2630;52.036;8.514;2023-03-24T07:49:23;13.80;99.90
5222;DHT22;2630;52.036;8.514;2023-03-24T07:51:49;14.30;99.90
5222;DHT22;2630;52.036;8.514;2023-03-24T07:54:15;14.40;99.90
5222;DHT22;2630;52.036;8.514;2023-03-24T07:56:40;14.40;99.90
5222;DHT22;2630;52.036;8.514;2023-03-24T07:59:06;14.60;99.90
5222;DHT22;2630;52.036;8.514;2023-03-24T08:01:34;14.80;99.90
5222;DHT22;2630;52.036;8.514;2023-03-24T08:04:01;14.70;99.90
5222;DHT22;2630;52.036;8.514;2023-03-24T08:06:27;14.80;99.90
5222;DHT22;2630;52.036;8.514;2023-03-24T08:08:54;14.70;99.90
5222;DHT22;2630;52.036;8.514;2023-03-24T08:11:20;14.90;99.90
5222;DHT22;2630;52.036;8.514;2023-03-24T08:16:12;14.30;99.90
5222;DHT22;2630;52.036;8.514;2023-03-24T08:18:37;14.00;99.90
5222;DHT22;2630;52.036;8.514;2023-03-24T08:21:04;13.80;99.90
5222;DHT22;2630;52.036;8.514;2023-03-24T08:23:29;13.80;99.90
5222;DHT22;2630;52.036;8.514;2023-03-24T08:25:55;14.20;99.90
5222;DHT22;2630;52.036;8.514;2023-03-24T08:28:21;14.50;99.90
5222;DHT22;2630;52.036;8.514;2023-03-24T08:30:47;14.80;99.90
5222;DHT22;2630;52.036;8.514;2023-03-24T08:33:14;14.90;99.90
5222;DHT22;2630;52.036;8.514;2023-03-24T08:35:41;15.00;99.90
5222;DHT22;2630;52.036;8.514;2023-03-24T08:38:08;14.80;99.90
5222;DHT22;2630;52.036;8.514;2023-03-24T08:40:36;15.10;99.90
5222;DHT22;2630;52.036;8.514;2023-03-24T08:43:04;14.90;99.90
5222;DHT22;2630;52.036;8.514;2023-03-24T08:45:32;14.80;99.90
5222;DHT22;2630;52.036;8.514;2023-03-24T08:50:28;14.60;99.90
5222;DHT22;2630;52.036;8.514;2023-03-24T08:52:56;14.40;99.90
5222;DHT22;2630;52.036;8.514;2023-03-24T08:55:22;14.60;99.90
5222;DHT22;2630;52.036;8.514;2023-03-24T08:57:48;14.70;99.90
5222;DHT22;2630;52.036;8.514;2023-03-24T09:00:15;15.00;99.90
5222;DHT22;2630;52.036;8.514;2023-03-24T09:02:45;15.30;99.90
5222;DHT22;2630;52.036;8.514;2023-03-24T09:07:39;15.50;99.90
5222;DHT22;2630;52.036;8.514;2023-03-24T09:10:07;15.30;99.90
5222;DHT22;2630;52.036;8.514;2023-03-24T09:12:34;14.90;99.90
5222;DHT22;2630;52.036;8.514;2023-03-24T09:15:00;14.70;99.90
5222;DHT22;2630;52.036;8.514;2023-03-24T09:17:26;14.50;99.90
5222;DHT22;2630;52.036;8.514;2023-03-24T09:24:44;14.70;99.90
5222;DHT22;2630;52.036;8.514;2023-03-24T09:27:09;14.90;99.90
5222;DHT22;2630;52.036;8.514;2023-03-24T09:29:35;15.00;99.90
5222;DHT22;2630;52.036;8.514;2023-03-24T09:32:01;15.00;99.90
5222;DHT22;2630;52.036;8.514;2023-03-24T09:34:26;15.10;99.90
5222;DHT22;2630;52.036;8.514;2023-03-24T09:36:52;14.90;99.90
5222;DHT22;2630;52.036;8.514;2023-03-24T09:39:18;14.50;99.90
5222;DHT22;2630;52.036;8.514;2023-03-24T09:41:43;14.40;99.90
5222;DHT22;2630;52.036;8.514;2023-03-24T09:46:48;14.80;99.90
5222;DHT22;2630;52.036;8.514;2023-03-24T09:49:23;14.90;99.90
5222;DHT22;2630;52.036;8.514;2023-03-24T09:51:54;14.90;99.90
5222;DHT22;2630;52.036;8.514;2023-03-24T09:54:34;15.90;99.90
5222;DHT22;2630;52.036;8.514;2023-03-24T09:57:14;16.60;99.90
5222;DHT22;2630;52.036;8.514;2023-03-24T09:59:41;16.80;99.90
5222;DHT22;2630;52.036;8.514;2023-03-24T10:02:15;16.50;99.90
5222;DHT22;2630;52.036;8.514;2023-03-24T10:09:47;16.20;99.90
5222;DHT22;2630;52.036;8.514;2023-03-24T10:17:56;15.30;99.90
5222;DHT22;2630;52.036;8.514;2023-03-24T10:28:30;16.30;99.90
5222;DHT22;2630;52.036;8.514;2023-03-24T10:31:00;16.20;99.90
5222;DHT22;2630;52.036;8.514;2023-03-24T10:33:27;16.20;99.90
5222;DHT22;2630;52.036;8.514;2023-03-24T10:38:21;16.00;99.90
5222;DHT22;2630;52.036;8.514;2023-03-24T10:40:48;15.70;99.90
5222;DHT22;2630;52.036;8.514;2023-03-24T10:43:18;15.30;99.90
5222;DHT22;2630;52.036;8.514;2023-03-24T10:45:50;15.30;99.90
5222;DHT22;2630;52.036;8.514;2023-03-24T10:51:01;16.60;99.90
5222;DHT22;2630;52.036;8.514;2023-03-24T10:53:27;17.50;99.90
5222;DHT22;2630;52.036;8.514;2023-03-24T10:55:52;17.50;99.90
5222;DHT22;2630;52.036;8.514;2023-03-24T10:58:36;17.30;99.90
5222;DHT22;2630;52.036;8.514;2023-03-24T11:03:46;16.90;99.90
5222;DHT22;2630;52.036;8.514;2023-03-24T11:06:16;16.70;99.90
5222;DHT22;2630;52.036;8.514;2023-03-24T11:08:42;16.60;99.90
5222;DHT22;2630;52.036;8.514;2023-03-24T11:13:58;17.30;99.90
5222;DHT22;2630;52.036;8.514;2023-03-24T11:19:00;18.00;99.90
5222;DHT22;2630;52.036;8.514;2023-03-24T11:21:31;18.50;99.90
5222;DHT22;2630;52.036;8.514;2023-03-24T11:24:01;18.90;99.90
5222;DHT22;2630;52.036;8.514;2023-03-24T11:26:33;18.50;99.90
5222;DHT22;2630;52.036;8.514;2023-03-24T11:29:03;17.80;99.90
5222;DHT22;2630;52.036;8.514;2023-03-24T11:31:32;17.20;99.90
5222;DHT22;2630;52.036;8.514;2023-03-24T11:34:21;16.80;99.90
5222;DHT22;2630;52.036;8.514;2023-03-24T11:36:55;16.30;99.90
5222;DHT22;2630;52.036;8.514;2023-03-24T11:44:40;15.60;99.90
5222;DHT22;2630;52.036;8.514;2023-03-24T11:52:30;16.20;99.90
5222;DHT22;2630;52.036;8.514;2023-03-24T11:54:57;16.80;99.90
5222;DHT22;2630;52.036;8.514;2023-03-24T11:57:49;17.30;99.90
5222;DHT22;2630;52.036;8.514;2023-03-24T12:11:14;17.30;99.90
5222;DHT22;2630;52.036;8.514;2023-03-24T12:13:44;16.80;99.90
5222;DHT22;2630;52.036;8.514;2023-03-24T12:35:46;16.20;99.90
5222;DHT22;2630;52.036;8.514;2023-03-24T12:38:38;15.80;99.90
5222;DHT22;2630;52.036;8.514;2023-03-24T12:46:42;16.40;99.90
5222;DHT22;2630;52.036;8.514;2023-03-24T12:55:20;16.30;99.90
5222;DHT22;2630;52.036;8.514;2023-03-24T12:57:51;16.20;99.90
5222;DHT22;2630;52.036;8.514;2023-03-24T13:00:24;16.00;99.90
5222;DHT22;2630;52.036;8.514;2023-03-24T13:05:22;15.60;99.90
5222;DHT22;2630;52.036;8.514;2023-03-24T13:07:54;15.40;99.90
5222;DHT22;2630;52.036;8.514;2023-03-24T13:10:27;15.40;99.90
5222;DHT22;2630;52.036;8.514;2023-03-24T13:15:46;15.60;99.90
5222;DHT22;2630;52.036;8.514;2023-03-24T13:18:35;15.90;99.90
5222;DHT22;2630;52.036;8.514;2023-03-24T13:26:37;15.90;99.90
5222;DHT22;2630;52.036;8.514;2023-03-24T13:32:13;15.70;99.90
5222;DHT22;2630;52.036;8.514;2023-03-24T13:34:46;15.60;99.90
5222;DHT22;2630;52.036;8.514;2023-03-24T13:37:18;15.30;99.90
5222;DHT22;2630;52.036;8.514;2023-03-24T13:39:47;15.20;99.90
5222;DHT22;2630;52.036;8.514;2023-03-24T13:42:46;15.10;99.90
5222;DHT22;2630;52.036;8.514;2023-03-24T13:45:34;15.00;99.90
5222;DHT22;2630;52.036;8.514;2023-03-24T13:55:50;15.30;99.90
5222;DHT22;2630;52.036;8.514;2023-03-24T13:58:22;15.20;99.90
5222;DHT22;2630;52.036;8.514;2023-03-24T14:03:41;15.40;99.90
5222;DHT22;2630;52.036;8.514;2023-03-24T14:06:08;15.30;99.90
5222;DHT22;2630;52.036;8.514;2023-03-24T14:08:42;15.20;99.90
5222;DHT22;2630;52.036;8.514;2023-03-24T14:11:41;14.80;99.90
5222;DHT22;2630;52.036;8.514;2023-03-24T14:17:01;14.80;99.90
5222;DHT22;2630;52.036;8.514;2023-03-24T14:22:29;15.30;99.90
5222;DHT22;2630;52.036;8.514;2023-03-24T14:25:17;15.30;99.90
5222;DHT22;2630;52.036;8.514;2023-03-24T14:27:46;15.10;99.90
5222;DHT22;2630;52.036;8.514;2023-03-24T14:30:25;15.00;99.90
5222;DHT22;2630;52.036;8.514;2023-03-24T14:32:55;14.90;99.90
5222;DHT22;2630;52.036;8.514;2023-03-24T14:38:00;14.80;99.90
5222;DHT22;2630;52.036;8.514;2023-03-24T14:40:34;14.70;99.90
5222;DHT22;2630;52.036;8.514;2023-03-24T14:43:16;14.70;99.90
5222;DHT22;2630;52.036;8.514;2023-03-24T14:46:02;14.70;99.90
5222;DHT22;2630;52.036;8.514;2023-03-24T14:48:35;14.70;99.90
5222;DHT22;2630;52.036;8.514;2023-03-24T14:51:38;14.60;99.90
5222;DHT22;2630;52.036;8.514;2023-03-24T14:54:31;14.70;99.90
5222;DHT22;2630;52.036;8.514;2023-03-24T14:56:58;14.70;99.90
5222;DHT22;2630;52.036;8.514;2023-03-24T15:01:55;14.80;99.90
5222;DHT22;2630;52.036;8.514;2023-03-24T15:04:24;14.80;99.90
5222;DHT22;2630;52.036;8.514;2023-03-24T15:06:50;14.70;99.90
5222;DHT22;2630;52.036;8.514;2023-03-24T15:09:17;14.60;99.90
5222;DHT22;2630;52.036;8.514;2023-03-24T15:11:44;14.50;99.90
5222;DHT22;2630;52.036;8.514;2023-03-24T15:14:20;14.50;99.90
5222;DHT22;2630;52.036;8.514;2023-03-24T15:17:22;14.30;99.90
5222;DHT22;2630;52.036;8.514;2023-03-24T15:19:53;13.90;99.90
5222;DHT22;2630;52.036;8.514;2023-03-24T15:22:19;13.00;99.90
5222;DHT22;2630;52.036;8.514;2023-03-24T15:24:50;12.60;99.90
5222;DHT22;2630;52.036;8.514;2023-03-24T15:27:18;11.90;99.90
5222;DHT22;2630;52.036;8.514;2023-03-24T15:29:53;11.60;99.90
5222;DHT22;2630;52.036;8.514;2023-03-24T15:32:22;11.40;99.90
5222;DHT22;2630;52.036;8.514;2023-03-24T15:34:59;11.00;99.90
5222;DHT22;2630;52.036;8.514;2023-03-24T15:37:38;10.90;99.90
5222;DHT22;2630;52.036;8.514;2023-03-24T15:43:01;10.70;99.90
5222;DHT22;2630;52.036;8.514;2023-03-24T15:45:30;10.60;99.90
5222;DHT22;2630;52.036;8.514;2023-03-24T15:48:01;10.60;99.90
5222;DHT22;2630;52.036;8.514;2023-03-24T15:53:44;10.40;99.90
5222;DHT22;2630;52.036;8.514;2023-03-24T15:55:44;10.30;99.90
5222;DHT22;2630;52.036;8.514;2023-03-24T15:58:26;10.40;99.90
5222;DHT22;2630;52.036;8.514;2023-03-24T16:00:55;10.30;99.90
5222;DHT22;2630;52.036;8.514;2023-03-24T16:03:22;10.30;99.90
5222;DHT22;2630;52.036;8.514;2023-03-24T16:05:52;10.20;99.90
5222;DHT22;2630;52.036;8.514;2023-03-24T16:08:34;10.20;99.90
5222;DHT22;2630;52.036;8.514;2023-03-24T16:11:04;10.30;99.90
5222;DHT22;2630;52.036;8.514;2023-03-24T16:13:33;10.30;99.90
5222;DHT22;2630;52.036;8.514;2023-03-24T16:16:01;10.40;99.90
5222;DHT22;2630;52.036;8.514;2023-03-24T16:18:33;10.40;99.90
5222;DHT22;2630;52.036;8.514;2023-03-24T16:21:00;10.40;99.90
5222;DHT22;2630;52.036;8.514;2023-03-24T16:25:52;10.20;99.90
5222;DHT22;2630;52.036;8.514;2023-03-24T16:30:51;10.00;99.90
5222;DHT22;2630;52.036;8.514;2023-03-24T16:33:18;10.00;99.90
5222;DHT22;2630;52.036;8.514;2023-03-24T16:35:44;10.10;99.90
5222;DHT22;2630;52.036;8.514;2023-03-24T16:38:11;10.10;99.90
5222;DHT22;2630;52.036;8.514;2023-03-24T16:43:08;10.10;99.90
5222;DHT22;2630;52.036;8.514;2023-03-24T16:45:34;10.10;99.90
5222;DHT22;2630;52.036;8.514;2023-03-24T16:48:00;10.20;99.90
5222;DHT22;2630;52.036;8.514;2023-03-24T16:52:55;10.30;99.90
5222;DHT22;2630;52.036;8.514;2023-03-24T16:57:47;10.20;99.90
5222;DHT22;2630;52.036;8.514;2023-03-24T17:00:13;10.20;99.90
5222;DHT22;2630;52.036;8.514;2023-03-24T17:02:39;10.20;99.90
5222;DHT22;2630;52.036;8.514;2023-03-24T17:05:18;10.20;99.90
5222;DHT22;2630;52.036;8.514;2023-03-24T17:07:44;10.00;99.90
5222;DHT22;2630;52.036;8.514;2023-03-24T17:10:10;10.00;99.90
5222;DHT22;2630;52.036;8.514;2023-03-24T17:12:36;10.10;99.90
5222;DHT22;2630;52.036;8.514;2023-03-24T17:15:01;10.00;99.90
5222;DHT22;2630;52.036;8.514;2023-03-24T17:17:27;10.00;99.90
5222;DHT22;2630;52.036;8.514;2023-03-24T17:19:52;10.00;99.90
5222;DHT22;2630;52.036;8.514;2023-03-24T17:24:45;10.20;99.90
5222;DHT22;2630;52.036;8.514;2023-03-24T17:27:15;10.20;99.90
5222;DHT22;2630;52.036;8.514;2023-03-24T17:29:43;10.20;99.90
5222;DHT22;2630;52.036;8.514;2023-03-24T17:32:09;10.30;99.90
5222;DHT22;2630;52.036;8.514;2023-03-24T17:34:35;10.20;99.90
5222;DHT22;2630;52.036;8.514;2023-03-24T17:37:03;10.30;99.90
5222;DHT22;2630;52.036;8.514;2023-03-24T17:39:28;10.30;99.90
5222;DHT22;2630;52.036;8.514;2023-03-24T17:41:54;10.20;99.90
5222;DHT22;2630;52.036;8.514;2023-03-24T17:46:48;10.10;99.90
5222;DHT22;2630;52.036;8.514;2023-03-24T17:49:14;10.10;99.90
5222;DHT22;2630;52.036;8.514;2023-03-24T17:51:40;10.10;99.90
5222;DHT22;2630;52.036;8.514;2023-03-24T17:54:05;10.00;99.90
5222;DHT22;2630;52.036;8.514;2023-03-24T17:56:31;10.00;99.90
5222;DHT22;2630;52.036;8.514;2023-03-24T17:58:56;9.90;99.90
5222;DHT22;2630;52.036;8.514;2023-03-24T18:01:26;9.90;99.90
5222;DHT22;2630;52.036;8.514;2023-03-24T18:03:54;9.90;99.90
5222;DHT22;2630;52.036;8.514;2023-03-24T18:06:19;9.90;99.90
5222;DHT22;2630;52.036;8.514;2023-03-24T18:13:41;9.90;99.90
5222;DHT22;2630;52.036;8.514;2023-03-24T18:16:07;9.80;99.90
5222;DHT22;2630;52.036;8.514;2023-03-24T18:18:34;9.80;99.90
5222;DHT22;2630;52.036;8.514;2023-03-24T18:21:00;9.80;99.90
5222;DHT22;2630;52.036;8.514;2023-03-24T18:23:26;9.80;99.90
5222;DHT22;2630;52.036;8.514;2023-03-24T18:25:59;9.80;99.90
5222;DHT22;2630;52.036;8.514;2023-03-24T18:30:51;9.70;99.90
5222;DHT22;2630;52.036;8.514;2023-03-24T18:33:17;9.80;99.90
5222;DHT22;2630;52.036;8.514;2023-03-24T18:35:51;9.80;99.90
5222;DHT22;2630;52.036;8.514;2023-03-24T18:38:18;9.70;99.90
5222;DHT22;2630;52.036;8.514;2023-03-24T18:43:12;9.60;99.90
5222;DHT22;2630;52.036;8.514;2023-03-24T18:48:04;9.90;99.90
5222;DHT22;2630;52.036;8.514;2023-03-24T18:52:57;9.90;99.90
5222;DHT22;2630;52.036;8.514;2023-03-24T18:57:51;9.90;99.90
5222;DHT22;2630;52.036;8.514;2023-03-24T19:00:16;9.90;99.90
5222;DHT22;2630;52.036;8.514;2023-03-24T19:12:30;9.80;99.90
5222;DHT22;2630;52.036;8.514;2023-03-24T19:14:56;9.70;99.90
5222;DHT22;2630;52.036;8.514;2023-03-24T19:22:14;9.60;99.90
5222;DHT22;2630;52.036;8.514;2023-03-24T19:24:45;9.60;99.90
5222;DHT22;2630;52.036;8.514;2023-03-24T19:27:11;9.60;99.90
5222;DHT22;2630;52.036;8.514;2023-03-24T19:29:36;9.50;99.90
5222;DHT22;2630;52.036;8.514;2023-03-24T19:32:02;9.50;99.90
5222;DHT22;2630;52.036;8.514;2023-03-24T19:34:27;9.40;99.90
5222;DHT22;2630;52.036;8.514;2023-03-24T19:36:53;9.40;99.90
5222;DHT22;2630;52.036;8.514;2023-03-24T19:39:21;9.30;99.90
5222;DHT22;2630;52.036;8.514;2023-03-24T19:41:50;9.30;99.90
5222;DHT22;2630;52.036;8.514;2023-03-24T19:44:16;9.20;99.90
5222;DHT22;2630;52.036;8.514;2023-03-24T19:46:41;9.20;99.90
5222;DHT22;2630;52.036;8.514;2023-03-24T19:51:33;9.10;99.90
5222;DHT22;2630;52.036;8.514;2023-03-24T19:53:59;9.10;99.90
5222;DHT22;2630;52.036;8.514;2023-03-24T19:56:24;9.00;99.90
5222;DHT22;2630;52.036;8.514;2023-03-24T19:58:50;9.00;99.90
5222;DHT22;2630;52.036;8.514;2023-03-24T20:01:16;9.00;99.90
5222;DHT22;2630;52.036;8.514;2023-03-24T20:03:41;9.00;99.90
5222;DHT22;2630;52.036;8.514;2023-03-24T20:08:35;8.90;99.90
5222;DHT22;2630;52.036;8.514;2023-03-24T20:11:00;8.90;99.90
5222;DHT22;2630;52.036;8.514;2023-03-24T20:13:28;8.90;99.90
5222;DHT22;2630;52.036;8.514;2023-03-24T20:15:53;8.90;99.90
5222;DHT22;2630;52.036;8.514;2023-03-24T20:18:19;8.90;99.90
5222;DHT22;2630;52.036;8.514;2023-03-24T20:20:45;8.90;99.90
5222;DHT22;2630;52.036;8.514;2023-03-24T20:28:06;8.90;99.90
5222;DHT22;2630;52.036;8.514;2023-03-24T20:35:24;9.00;99.90
5222;DHT22;2630;52.036;8.514;2023-03-24T20:37:50;9.00;99.90
5222;DHT22;2630;52.036;8.514;2023-03-24T20:40:16;9.00;99.90
5222;DHT22;2630;52.036;8.514;2023-03-24T20:42:41;9.00;99.90
5222;DHT22;2630;52.036;8.514;2023-03-24T20:45:09;9.00;99.90
5222;DHT22;2630;52.036;8.514;2023-03-24T20:47:35;9.00;99.90
5222;DHT22;2630;52.036;8.514;2023-03-24T20:50:01;9.00;99.90
5222;DHT22;2630;52.036;8.514;2023-03-24T20:52:27;9.00;99.90
5222;DHT22;2630;52.036;8.514;2023-03-24T20:54:53;9.00;99.90
5222;DHT22;2630;52.036;8.514;2023-03-24T20:57:19;8.90;99.90
5222;DHT22;2630;52.036;8.514;2023-03-24T21:02:14;8.90;99.90
5222;DHT22;2630;52.036;8.514;2023-03-24T21:11:58;8.90;99.90
5222;DHT22;2630;52.036;8.514;2023-03-24T21:16:51;8.90;99.90
5222;DHT22;2630;52.036;8.514;2023-03-24T21:19:16;8.80;99.90
5222;DHT22;2630;52.036;8.514;2023-03-24T21:21:43;8.90;99.90
5222;DHT22;2630;52.036;8.514;2023-03-24T21:24:09;8.90;99.90
5222;DHT22;2630;52.036;8.514;2023-03-24T21:26:37;8.90;99.90
5222;DHT22;2630;52.036;8.514;2023-03-24T21:29:02;8.90;99.90